Terminal Aerodrome Forecast
Issued by NWS

Home | Current Version | Previous Version | Text Only | Print | Product List | Glossary On
Versions: 1 2 3 4 5 6 7 8 9 10 11 12 13 14 15 16 17 18 19 20 21 22
596
FTUS46 KMFR 221746
TAFRBG
TAF
KRBG 221746Z 2218/2318 VRB05KT 3SM -RA FEW005 SCT015 OVC020
      TEMPO 2218/2220 1SM RA BR BKN004 BKN012 OVC020
     FM222000 19005KT 4SM -RA SCT012 BKN020 OVC030
     FM222200 18005KT P6SM -SHRA BKN020 OVC040
     FM230700 00000KT 4SM BR OVC015
     FM230900 12001KT 4SM BR OVC007
     FM231300 VRB02KT 1/4SM FG OVC001=

USA.gov is the U.S. government's official web portal to all federal, state and local government web resources and services.